Bourbon Liberty 309 — FIRR — position and weather

sailwx.info

Track history (hours):
 
Tides and Currents Weather Stations Pressure Air Temp Water Temp Dewpoint Dewpoint Depression Visibility Wind Speed Wind Dir Waves Ship Positions

Bourbon Liberty 309

Last reported at 2017-Nov-19 11:54 UTC. Time now 2017-Nov-24 07:23 UTC.
Position S 05°01' E 011°31'.

Length 66 m; draft 4.5 m.

Type: Other ship. MMSI: 228057800.

Date/timePositionNaut miles runAvg speedWind from/ knotsBaromVisibWave heightAir tempDewpointWater temp
2017-Nov-19 11:54S 05°01' E 011°31'4 9.5
2017-Nov-19 11:30S 05°05' E 011°30'5 9.5
2017-Nov-19 11:00S 05°09' E 011°28'5 9.3
2017-Nov-19 10:30S 05°13' E 011°25'4 8.6
2017-Nov-19 10:00S 05°17' E 011°23'0 0.5
2017-Nov-19 09:31S 05°17' E 011°23'0 0.0
2017-Nov-19 09:00S 05°17' E 011°23'0 0.0
2017-Nov-19 08:30S 05°17' E 011°23'0 0.0
2017-Nov-19 08:00S 05°17' E 011°23'0 0.0
2017-Nov-19 07:31S 05°17' E 011°23'0 0.3
2017-Nov-19 07:00S 05°17' E 011°23'1 1.9
2017-Nov-19 06:30S 05°16' E 011°22'2 3.3
2017-Nov-19 06:00S 05°15' E 011°23'0 0.5
2017-Nov-19 05:30S 05°15' E 011°24'0 0.5
2017-Nov-19 05:00S 05°15' E 011°24'0 0.4
2017-Nov-19 04:30S 05°15' E 011°24'0 0.5
2017-Nov-19 04:00S 05°15' E 011°24'0 0.5
2017-Nov-19 03:30S 05°15' E 011°25'0 0.4
2017-Nov-19 03:00S 05°15' E 011°25'0 0.4
2017-Nov-19 02:30S 05°15' E 011°25'0 0.5
2017-Nov-19 02:00S 05°15' E 011°25'0 0.5
2017-Nov-19 01:30S 05°15' E 011°25'0 0.4
2017-Nov-19 01:00S 05°15' E 011°26'0 0.3
2017-Nov-19 00:30S 05°15' E 011°26'0 0.4
2017-Nov-19 00:00S 05°15' E 011°26'0 0.2
2017-Nov-18 23:31S 05°15' E 011°26'0 0.3
2017-Nov-18 23:00S 05°15' E 011°26'0 0.3
2017-Nov-18 22:30S 05°15' E 011°26'0 0.3
2017-Nov-18 22:00S 05°15' E 011°26'0 0.3
2017-Nov-18 21:30S 05°15' E 011°27'0 0.2
2017-Nov-18 21:01S 05°15' E 011°27'0 0.3
2017-Nov-18 20:30S 05°15' E 011°27'1 1.4
2017-Nov-18 20:00S 05°16' E 011°27'2 4.3
2017-Nov-18 19:31S 05°18' E 011°26'2 3.6
2017-Nov-18 19:00S 05°19' E 011°25'0 0.6
2017-Nov-18 18:30S 05°19' E 011°25'2 3.9
2017-Nov-18 18:00S 05°21' E 011°24'2 3.8
2017-Nov-18 17:31S 05°21' E 011°22'0 0.9
2017-Nov-18 17:00S 05°21' E 011°22'1 1.0
2017-Nov-18 16:30S 05°21' E 011°23'1 1.1
2017-Nov-18 16:00S 05°21' E 011°23'1 1.1
2017-Nov-18 15:30S 05°21' E 011°24'1 1.1
2017-Nov-18 15:00S 05°21' E 011°24'1 1.2
2017-Nov-18 14:30S 05°21' E 011°25'1 1.5
2017-Nov-18 14:01S 05°20' E 011°25'1 2.0
2017-Nov-18 13:30S 05°20' E 011°24'1 1.1
2017-Nov-18 13:00S 05°20' E 011°25'1 1.1
2017-Nov-18 12:30S 05°20' E 011°25'2 3.5
2017-Nov-18 12:00S 05°21' E 011°24'1 1.0
2017-Nov-18 11:30S 05°21' E 011°25'1 1.0
2017-Nov-18 11:00S 05°21' E 011°25'1 1.1
2017-Nov-18 10:30S 05°21' E 011°26'1 2.2
2017-Nov-18 10:00S 05°22' E 011°26'1 1.6
2017-Nov-18 09:30S 05°23' E 011°27'0 0.3
2017-Nov-18 09:00S 05°23' E 011°27'0 0.1
2017-Nov-18 08:18S 05°23' E 011°27'0 0.0
2017-Nov-18 07:50S 05°23' E 011°27'0 0.0
2017-Nov-18 07:28S 05°23' E 011°27'0 0.0
2017-Nov-18 07:00S 05°23' E 011°27'0 0.1
2017-Nov-18 06:30S 05°23' E 011°27'0 0.6
2017-Nov-18 05:56S 05°23' E 011°27'1 3.3
2017-Nov-18 05:30S 05°22' E 011°26'2 3.1
2017-Nov-18 05:00S 05°21' E 011°25'0 0.6
2017-Nov-18 04:30S 05°21' E 011°25'0 0.6
2017-Nov-18 04:00S 05°21' E 011°26'0 0.6
2017-Nov-18 03:29S 05°21' E 011°26'0 0.3
2017-Nov-18 03:00S 05°21' E 011°26'0 0.4
2017-Nov-18 02:30S 05°21' E 011°26'0 0.4
2017-Nov-18 02:01S 05°21' E 011°26'0 0.4
2017-Nov-18 01:30S 05°21' E 011°26'0 0.3
2017-Nov-18 01:00S 05°21' E 011°27'1 2.4
2017-Nov-18 00:30S 05°22' E 011°27'2 3.1
2017-Nov-17 23:59S 05°23' E 011°28'0 0.0
2017-Nov-17 23:30S 05°23' E 011°28'0 0.0
2017-Nov-17 22:57S 05°23' E 011°28'0 0.2
2017-Nov-17 22:30S 05°23' E 011°28'0 0.5
2017-Nov-17 22:00S 05°23' E 011°28'2 3.5
2017-Nov-17 21:30S 05°23' E 011°30'3 5.9
2017-Nov-17 20:56S 05°21' E 011°33'6 5.9
2017-Nov-17 19:54S 05°17' E 011°37'2 5.9
2017-Nov-17 19:30S 05°15' E 011°38'10 0.3
2017-Nov-16 09:48S 05°05' E 011°39'3 9.4
2017-Nov-16 09:30S 05°07' E 011°38'5 9.3
2017-Nov-16 08:58S 05°11' E 011°35'5 9.1
2017-Nov-16 08:24S 05°15' E 011°32'4 9.1
2017-Nov-16 08:00S 05°18' E 011°29'5 9.2
2017-Nov-16 07:30S 05°22' E 011°27'1 1.6
2017-Nov-16 06:59S 05°23' E 011°27'0 0.3
2017-Nov-16 05:40S 05°23' E 011°27'1 3.7
2017-Nov-16 05:29S 05°23' E 011°26'2 0.4
2017-Nov-16 00:30S 05°21' E 011°25'0 0.6
2017-Nov-16 00:00S 05°21' E 011°25'0 0.4
2017-Nov-15 23:30S 05°21' E 011°25'0 0.5
2017-Nov-15 23:00S 05°21' E 011°26'0 0.5
2017-Nov-15 22:30S 05°21' E 011°26'1 2.1
2017-Nov-15 21:59S 05°21' E 011°27'1 2.4
2017-Nov-15 21:30S 05°20' E 011°28'1 2.5
2017-Nov-15 20:59S 05°20' E 011°29'1 2.5
2017-Nov-15 20:29S 05°19' E 011°30'1 2.5
2017-Nov-15 19:57S 05°19' E 011°32'1 2.6
2017-Nov-15 19:30S 05°19' E 011°33'1 2.0
2017-Nov-15 18:54S 05°18' E 011°33'1 1.7
2017-Nov-15 18:28S 05°17' E 011°34'1 0.3
2017-Nov-15 16:36S 05°17' E 011°34'0 0.1
2017-Nov-15 16:30S 05°17' E 011°34'1 0.8
2017-Nov-15 15:24S 05°16' E 011°34'1 2.4
2017-Nov-15 15:00S 05°15' E 011°35'0 0.6
2017-Nov-15 14:30S 05°15' E 011°34'0 0.7
2017-Nov-15 13:57S 05°15' E 011°34'4 8.0
2017-Nov-15 13:29S 05°18' E 011°31'4 8.7
2017-Nov-15 13:00S 05°21' E 011°29'2 3.5
2017-Nov-15 12:30S 05°22' E 011°27'1 2.1
2017-Nov-15 11:59S 05°23' E 011°27'0 0.0
2017-Nov-15 11:29S 05°23' E 011°27'0 0.0
2017-Nov-15 10:59S 05°23' E 011°27'0 0.0
2017-Nov-15 10:30S 05°23' E 011°27'0 0.0
2017-Nov-15 09:49S 05°23' E 011°27'0 0.0
2017-Nov-15 09:29S 05°23' E 011°27'0 0.0
2017-Nov-15 08:55S 05°23' E 011°27'0 0.0
2017-Nov-15 08:26S 05°23' E 011°27'0 0.0
2017-Nov-15 07:56S 05°23' E 011°27'0 0.1
2017-Nov-15 06:24S 05°23' E 011°27'1 2.3
2017-Nov-15 06:00S 05°22' E 011°27'2 4.8
2017-Nov-15 05:29S 05°20' E 011°28'3 5.5
2017-Nov-15 05:00S 05°18' E 011°29'6 5.5
2017-Nov-15 03:50S 05°13' E 011°33'3 0.2
2017-Nov-14 09:57S 05°16' E 011°34'0 0.8
2017-Nov-14 09:24S 05°16' E 011°34'0 0.4
2017-Nov-14 08:42S 05°16' E 011°34'0 0.4
2017-Nov-14 08:27S 05°16' E 011°34'0 0.5
2017-Nov-14 07:53S 05°15' E 011°34'1 1.6
2017-Nov-14 07:30S 05°15' E 011°34'1 1.8
2017-Nov-14 07:00S 05°14' E 011°33'0 0.3
2017-Nov-14 06:23S 05°14' E 011°33'0 0.2
2017-Nov-14 04:51S 05°14' E 011°34'0 0.0
2017-Nov-14 04:30S 05°14' E 011°34'0 0.1
2017-Nov-14 04:00S 05°14' E 011°34'0 0.1
2017-Nov-14 03:25S 05°14' E 011°34'0 0.0
2017-Nov-14 02:59S 05°14' E 011°34'0 0.1
2017-Nov-14 02:28S 05°14' E 011°34'0 0.1
2017-Nov-14 02:00S 05°14' E 011°34'0 0.0
2017-Nov-14 01:30S 05°14' E 011°34'0 0.0
2017-Nov-14 01:00S 05°14' E 011°34'0 0.3
2017-Nov-13 23:59S 05°14' E 011°34'4 0.2
2017-Nov-13 01:54S 05°16' E 011°31'3 6.6
2017-Nov-13 01:30S 05°18' E 011°30'3 6.8
2017-Nov-13 01:00S 05°21' E 011°28'2 0.6
2017-Nov-12 21:19S 05°23' E 011°28'2 5.4
2017-Nov-12 21:00S 05°22' E 011°29'0 0.7
2017-Nov-12 20:30S 05°22' E 011°29'0 0.5
2017-Nov-12 20:00S 05°22' E 011°29'2 3.7
2017-Nov-12 19:29S 05°23' E 011°27'1 2.6
2017-Nov-12 19:00S 05°22' E 011°26'1 2.1
2017-Nov-12 18:29S 05°21' E 011°26'1 2.9
2017-Nov-12 18:00S 05°22' E 011°25'1 1.1
2017-Nov-12 17:30S 05°22' E 011°26'1 1.1
2017-Nov-12 17:00S 05°22' E 011°26'1 1.2
2017-Nov-12 16:28S 05°23' E 011°27'0 0.7
2017-Nov-12 15:58S 05°23' E 011°27'0 0.1
2017-Nov-12 14:07S 05°23' E 011°27'0 0.2
2017-Nov-12 13:54S 05°23' E 011°27'0 0.4
2017-Nov-12 13:18S 05°23' E 011°27'0 0.0
2017-Nov-12 13:00S 05°23' E 011°27'0 0.0
2017-Nov-12 12:29S 05°23' E 011°27'1 1.4
2017-Nov-12 12:00S 05°22' E 011°27'3 5.0
2017-Nov-12 11:25S 05°20' E 011°25'2 4.8
2017-Nov-12 11:00S 05°19' E 011°24'2 3.7
2017-Nov-12 10:30S 05°17' E 011°23'0 0.5
2017-Nov-12 10:00S 05°17' E 011°23'0 0.0
2017-Nov-12 09:29S 05°17' E 011°23'0 0.0
2017-Nov-12 09:00S 05°17' E 011°23'0 0.0
2017-Nov-12 08:30S 05°17' E 011°23'0 0.0
2017-Nov-12 08:00S 05°17' E 011°23'0 0.0
2017-Nov-12 07:30S 05°17' E 011°23'0 0.0
2017-Nov-12 06:56S 05°17' E 011°23'0 0.2
2017-Nov-12 06:30S 05°17' E 011°23'0 0.7
2017-Nov-12 06:00S 05°17' E 011°23'1 2.3
2017-Nov-12 05:30S 05°16' E 011°24'3 6.3
2017-Nov-12 05:00S 05°13' E 011°25'3 6.1
2017-Nov-12 04:30S 05°10' E 011°27'3 6.1
2017-Nov-12 03:59S 05°08' E 011°28'19 0.5
2017-Nov-10 14:50S 04°49' E 011°28'1 1.7
2017-Nov-10 14:23S 04°49' E 011°27'17 0.8
2017-Nov-09 16:13S 04°56' E 011°43'4 9.3
2017-Nov-09 15:45S 04°60' E 011°42'3 9.2
2017-Nov-09 15:27S 05°02' E 011°40'4 8.8
2017-Nov-09 14:57S 05°06' E 011°38'4 9.8
2017-Nov-09 14:30S 05°10' E 011°36'6 9.5
2017-Nov-09 13:54S 05°14' E 011°32'4 9.2
2017-Nov-09 13:30S 05°17' E 011°30'5 9.1
2017-Nov-09 13:00S 05°21' E 011°28'  
Track history (hours):
 
Tides and Currents Weather Stations Pressure Air Temp Water Temp Dewpoint Dewpoint Depression Visibility Wind Speed Wind Dir Waves Ship Positions

Bourbon Liberty 309

Last reported at 2017-Nov-19 11:54 UTC. Time now 2017-Nov-24 07:23 UTC.
Position S 05°01' E 011°31'.

Length 66 m; draft 4.5 m.

Type: Other ship. MMSI: 228057800.

Date/timePositionNaut miles runAvg speedWind from/ knotsBaromVisibWave heightAir tempDewpointWater temp
2017-Nov-19 11:54S 05°01' E 011°31'4 9.5
2017-Nov-19 11:30S 05°05' E 011°30'5 9.5
2017-Nov-19 11:00S 05°09' E 011°28'5 9.3
2017-Nov-19 10:30S 05°13' E 011°25'4 8.6
2017-Nov-19 10:00S 05°17' E 011°23'0 0.5
2017-Nov-19 09:31S 05°17' E 011°23'0 0.0
2017-Nov-19 09:00S 05°17' E 011°23'0 0.0
2017-Nov-19 08:30S 05°17' E 011°23'0 0.0
2017-Nov-19 08:00S 05°17' E 011°23'0 0.0
2017-Nov-19 07:31S 05°17' E 011°23'0 0.3
2017-Nov-19 07:00S 05°17' E 011°23'1 1.9
2017-Nov-19 06:30S 05°16' E 011°22'2 3.3
2017-Nov-19 06:00S 05°15' E 011°23'0 0.5
2017-Nov-19 05:30S 05°15' E 011°24'0 0.5
2017-Nov-19 05:00S 05°15' E 011°24'0 0.4
2017-Nov-19 04:30S 05°15' E 011°24'0 0.5
2017-Nov-19 04:00S 05°15' E 011°24'0 0.5
2017-Nov-19 03:30S 05°15' E 011°25'0 0.4
2017-Nov-19 03:00S 05°15' E 011°25'0 0.4
2017-Nov-19 02:30S 05°15' E 011°25'0 0.5
2017-Nov-19 02:00S 05°15' E 011°25'0 0.5
2017-Nov-19 01:30S 05°15' E 011°25'0 0.4
2017-Nov-19 01:00S 05°15' E 011°26'0 0.3
2017-Nov-19 00:30S 05°15' E 011°26'0 0.4
2017-Nov-19 00:00S 05°15' E 011°26'0 0.2
2017-Nov-18 23:31S 05°15' E 011°26'0 0.3
2017-Nov-18 23:00S 05°15' E 011°26'0 0.3
2017-Nov-18 22:30S 05°15' E 011°26'0 0.3
2017-Nov-18 22:00S 05°15' E 011°26'0 0.3
2017-Nov-18 21:30S 05°15' E 011°27'0 0.2
2017-Nov-18 21:01S 05°15' E 011°27'0 0.3
2017-Nov-18 20:30S 05°15' E 011°27'1 1.4
2017-Nov-18 20:00S 05°16' E 011°27'2 4.3
2017-Nov-18 19:31S 05°18' E 011°26'2 3.6
2017-Nov-18 19:00S 05°19' E 011°25'0 0.6
2017-Nov-18 18:30S 05°19' E 011°25'2 3.9
2017-Nov-18 18:00S 05°21' E 011°24'2 3.8
2017-Nov-18 17:31S 05°21' E 011°22'0 0.9
2017-Nov-18 17:00S 05°21' E 011°22'1 1.0
2017-Nov-18 16:30S 05°21' E 011°23'1 1.1
2017-Nov-18 16:00S 05°21' E 011°23'1 1.1
2017-Nov-18 15:30S 05°21' E 011°24'1 1.1
2017-Nov-18 15:00S 05°21' E 011°24'1 1.2
2017-Nov-18 14:30S 05°21' E 011°25'1 1.5
2017-Nov-18 14:01S 05°20' E 011°25'1 2.0
2017-Nov-18 13:30S 05°20' E 011°24'1 1.1
2017-Nov-18 13:00S 05°20' E 011°25'1 1.1
2017-Nov-18 12:30S 05°20' E 011°25'2 3.5
2017-Nov-18 12:00S 05°21' E 011°24'1 1.0
2017-Nov-18 11:30S 05°21' E 011°25'1 1.0
2017-Nov-18 11:00S 05°21' E 011°25'1 1.1
2017-Nov-18 10:30S 05°21' E 011°26'1 2.2
2017-Nov-18 10:00S 05°22' E 011°26'1 1.6
2017-Nov-18 09:30S 05°23' E 011°27'0 0.3
2017-Nov-18 09:00S 05°23' E 011°27'0 0.1
2017-Nov-18 08:18S 05°23' E 011°27'0 0.0
2017-Nov-18 07:50S 05°23' E 011°27'0 0.0
2017-Nov-18 07:28S 05°23' E 011°27'0 0.0
2017-Nov-18 07:00S 05°23' E 011°27'0 0.1
2017-Nov-18 06:30S 05°23' E 011°27'0 0.6
2017-Nov-18 05:56S 05°23' E 011°27'1 3.3
2017-Nov-18 05:30S 05°22' E 011°26'2 3.1
2017-Nov-18 05:00S 05°21' E 011°25'0 0.6
2017-Nov-18 04:30S 05°21' E 011°25'0 0.6
2017-Nov-18 04:00S 05°21' E 011°26'0 0.6
2017-Nov-18 03:29S 05°21' E 011°26'0 0.3
2017-Nov-18 03:00S 05°21' E 011°26'0 0.4
2017-Nov-18 02:30S 05°21' E 011°26'0 0.4
2017-Nov-18 02:01S 05°21' E 011°26'0 0.4
2017-Nov-18 01:30S 05°21' E 011°26'0 0.3
2017-Nov-18 01:00S 05°21' E 011°27'1 2.4
2017-Nov-18 00:30S 05°22' E 011°27'2 3.1
2017-Nov-17 23:59S 05°23' E 011°28'0 0.0
2017-Nov-17 23:30S 05°23' E 011°28'0 0.0
2017-Nov-17 22:57S 05°23' E 011°28'0 0.2
2017-Nov-17 22:30S 05°23' E 011°28'0 0.5
2017-Nov-17 22:00S 05°23' E 011°28'2 3.5
2017-Nov-17 21:30S 05°23' E 011°30'3 5.9
2017-Nov-17 20:56S 05°21' E 011°33'6 5.9
2017-Nov-17 19:54S 05°17' E 011°37'2 5.9
2017-Nov-17 19:30S 05°15' E 011°38'10 0.3
2017-Nov-16 09:48S 05°05' E 011°39'3 9.4
2017-Nov-16 09:30S 05°07' E 011°38'5 9.3
2017-Nov-16 08:58S 05°11' E 011°35'5 9.1
2017-Nov-16 08:24S 05°15' E 011°32'4 9.1
2017-Nov-16 08:00S 05°18' E 011°29'5 9.2
2017-Nov-16 07:30S 05°22' E 011°27'1 1.6
2017-Nov-16 06:59S 05°23' E 011°27'0 0.3
2017-Nov-16 05:40S 05°23' E 011°27'1 3.7
2017-Nov-16 05:29S 05°23' E 011°26'2 0.4
2017-Nov-16 00:30S 05°21' E 011°25'0 0.6
2017-Nov-16 00:00S 05°21' E 011°25'0 0.4
2017-Nov-15 23:30S 05°21' E 011°25'0 0.5
2017-Nov-15 23:00S 05°21' E 011°26'0 0.5
2017-Nov-15 22:30S 05°21' E 011°26'1 2.1
2017-Nov-15 21:59S 05°21' E 011°27'1 2.4
2017-Nov-15 21:30S 05°20' E 011°28'1 2.5
2017-Nov-15 20:59S 05°20' E 011°29'1 2.5
2017-Nov-15 20:29S 05°19' E 011°30'1 2.5
2017-Nov-15 19:57S 05°19' E 011°32'1 2.6
2017-Nov-15 19:30S 05°19' E 011°33'1 2.0
2017-Nov-15 18:54S 05°18' E 011°33'1 1.7
2017-Nov-15 18:28S 05°17' E 011°34'1 0.3
2017-Nov-15 16:36S 05°17' E 011°34'0 0.1
2017-Nov-15 16:30S 05°17' E 011°34'1 0.8
2017-Nov-15 15:24S 05°16' E 011°34'1 2.4
2017-Nov-15 15:00S 05°15' E 011°35'0 0.6
2017-Nov-15 14:30S 05°15' E 011°34'0 0.7
2017-Nov-15 13:57S 05°15' E 011°34'4 8.0
2017-Nov-15 13:29S 05°18' E 011°31'4 8.7
2017-Nov-15 13:00S 05°21' E 011°29'2 3.5
2017-Nov-15 12:30S 05°22' E 011°27'1 2.1
2017-Nov-15 11:59S 05°23' E 011°27'0 0.0
2017-Nov-15 11:29S 05°23' E 011°27'0 0.0
2017-Nov-15 10:59S 05°23' E 011°27'0 0.0
2017-Nov-15 10:30S 05°23' E 011°27'0 0.0
2017-Nov-15 09:49S 05°23' E 011°27'0 0.0
2017-Nov-15 09:29S 05°23' E 011°27'0 0.0
2017-Nov-15 08:55S 05°23' E 011°27'0 0.0
2017-Nov-15 08:26S 05°23' E 011°27'0 0.0
2017-Nov-15 07:56S 05°23' E 011°27'0 0.1
2017-Nov-15 06:24S 05°23' E 011°27'1 2.3
2017-Nov-15 06:00S 05°22' E 011°27'2 4.8
2017-Nov-15 05:29S 05°20' E 011°28'3 5.5
2017-Nov-15 05:00S 05°18' E 011°29'6 5.5
2017-Nov-15 03:50S 05°13' E 011°33'3 0.2
2017-Nov-14 09:57S 05°16' E 011°34'0 0.8
2017-Nov-14 09:24S 05°16' E 011°34'0 0.4
2017-Nov-14 08:42S 05°16' E 011°34'0 0.4
2017-Nov-14 08:27S 05°16' E 011°34'0 0.5
2017-Nov-14 07:53S 05°15' E 011°34'1 1.6
2017-Nov-14 07:30S 05°15' E 011°34'1 1.8
2017-Nov-14 07:00S 05°14' E 011°33'0 0.3
2017-Nov-14 06:23S 05°14' E 011°33'0 0.2
2017-Nov-14 04:51S 05°14' E 011°34'0 0.0
2017-Nov-14 04:30S 05°14' E 011°34'0 0.1
2017-Nov-14 04:00S 05°14' E 011°34'0 0.1
2017-Nov-14 03:25S 05°14' E 011°34'0 0.0
2017-Nov-14 02:59S 05°14' E 011°34'0 0.1
2017-Nov-14 02:28S 05°14' E 011°34'0 0.1
2017-Nov-14 02:00S 05°14' E 011°34'0 0.0
2017-Nov-14 01:30S 05°14' E 011°34'0 0.0
2017-Nov-14 01:00S 05°14' E 011°34'0 0.3
2017-Nov-13 23:59S 05°14' E 011°34'4 0.2
2017-Nov-13 01:54S 05°16' E 011°31'3 6.6
2017-Nov-13 01:30S 05°18' E 011°30'3 6.8
2017-Nov-13 01:00S 05°21' E 011°28'2 0.6
2017-Nov-12 21:19S 05°23' E 011°28'2 5.4
2017-Nov-12 21:00S 05°22' E 011°29'0 0.7
2017-Nov-12 20:30S 05°22' E 011°29'0 0.5
2017-Nov-12 20:00S 05°22' E 011°29'2 3.7
2017-Nov-12 19:29S 05°23' E 011°27'1 2.6
2017-Nov-12 19:00S 05°22' E 011°26'1 2.1
2017-Nov-12 18:29S 05°21' E 011°26'1 2.9
2017-Nov-12 18:00S 05°22' E 011°25'1 1.1
2017-Nov-12 17:30S 05°22' E 011°26'1 1.1
2017-Nov-12 17:00S 05°22' E 011°26'1 1.2
2017-Nov-12 16:28S 05°23' E 011°27'0 0.7
2017-Nov-12 15:58S 05°23' E 011°27'0 0.1
2017-Nov-12 14:07S 05°23' E 011°27'0 0.2
2017-Nov-12 13:54S 05°23' E 011°27'0 0.4
2017-Nov-12 13:18S 05°23' E 011°27'0 0.0
2017-Nov-12 13:00S 05°23' E 011°27'0 0.0
2017-Nov-12 12:29S 05°23' E 011°27'1 1.4
2017-Nov-12 12:00S 05°22' E 011°27'3 5.0
2017-Nov-12 11:25S 05°20' E 011°25'2 4.8
2017-Nov-12 11:00S 05°19' E 011°24'2 3.7
2017-Nov-12 10:30S 05°17' E 011°23'0 0.5
2017-Nov-12 10:00S 05°17' E 011°23'0 0.0
2017-Nov-12 09:29S 05°17' E 011°23'0 0.0
2017-Nov-12 09:00S 05°17' E 011°23'0 0.0
2017-Nov-12 08:30S 05°17' E 011°23'0 0.0
2017-Nov-12 08:00S 05°17' E 011°23'0 0.0
2017-Nov-12 07:30S 05°17' E 011°23'0 0.0
2017-Nov-12 06:56S 05°17' E 011°23'0 0.2
2017-Nov-12 06:30S 05°17' E 011°23'0 0.7
2017-Nov-12 06:00S 05°17' E 011°23'1 2.3
2017-Nov-12 05:30S 05°16' E 011°24'3 6.3
2017-Nov-12 05:00S 05°13' E 011°25'3 6.1
2017-Nov-12 04:30S 05°10' E 011°27'3 6.1
2017-Nov-12 03:59S 05°08' E 011°28'19 0.5
2017-Nov-10 14:50S 04°49' E 011°28'1 1.7
2017-Nov-10 14:23S 04°49' E 011°27'17 0.8
2017-Nov-09 16:13S 04°56' E 011°43'4 9.3
2017-Nov-09 15:45S 04°60' E 011°42'3 9.2
2017-Nov-09 15:27S 05°02' E 011°40'4 8.8
2017-Nov-09 14:57S 05°06' E 011°38'4 9.8
2017-Nov-09 14:30S 05°10' E 011°36'6 9.5
2017-Nov-09 13:54S 05°14' E 011°32'4 9.2
2017-Nov-09 13:30S 05°17' E 011°30'5 9.1
2017-Nov-09 13:00S 05°21' E 011°28'  

Dump ship's entire track history